Time;durP1;ratioP1;P1;durP2;ratioP2;P2;SDS_P1;SDS_P2;PMS_P1;PMS_P2;Temp;Humidity;BMP_temperature;BMP_pressure;BME280_temperature;BME280_humidity;BME280_pressure;Samples;Min_cycle;Max_cycle;Signal;HPM_P1;HPM_P2
2023/07/11 00:02:33;;;;;;;7.60;6.78;;;;;;;19.67;67.30;95316.84;6130337;23;20198;-69
2023/07/11 00:05:20;;;;;;;7.45;6.75;;;;;;;19.66;66.74;95315.28;6130413;23;20255;-69
2023/07/11 00:08:09;;;;;;;7.35;6.72;;;;;;;19.66;66.47;95318.06;6130421;23;20570;-69
2023/07/11 00:10:56;;;;;;;7.45;6.75;;;;;;;19.63;67.33;95316.88;6130401;23;20175;-69
2023/07/11 00:13:42;;;;;;;7.78;7.18;;;;;;;19.61;66.62;95324.06;6139956;23;20243;-69
2023/07/11 00:16:28;;;;;;;7.60;7.00;;;;;;;19.62;66.63;95323.69;6130533;23;20190;-69
2023/07/11 00:19:16;;;;;;;7.55;6.95;;;;;;;19.61;66.44;95327.66;6140091;23;20195;-69
2023/07/11 00:22:02;;;;;;;7.90;7.20;;;;;;;19.59;66.77;95327.25;6130057;23;20198;-69
2023/07/11 00:24:49;;;;;;;8.65;7.85;;;;;;;19.57;67.45;95326.06;6139754;23;20226;-69
2023/07/11 00:27:35;;;;;;;9.15;8.32;;;;;;;19.54;67.03;95318.50;6130234;23;20457;-69
2023/07/11 00:30:23;;;;;;;8.07;7.40;;;;;;;19.53;67.38;95323.28;6139988;23;20210;-69
2023/07/11 00:33:09;;;;;;;7.93;7.22;;;;;;;19.54;67.54;95321.28;6130146;23;20175;-69
2023/07/11 00:36:00;;;;;;;8.27;7.57;;;;;;;19.54;67.41;95318.50;6130213;23;20171;-69
2023/07/11 00:38:45;;;;;;;8.18;7.47;;;;;;;19.53;67.94;95308.50;6130087;23;20171;-69
2023/07/11 00:41:34;;;;;;;8.50;7.70;;;;;;;19.47;68.17;95299.72;6129969;23;20179;-69
2023/07/11 00:44:21;;;;;;;8.18;7.40;;;;;;;19.44;68.12;95306.13;6129976;23;20178;-69
2023/07/11 00:47:07;;;;;;;8.63;7.85;;;;;;;19.47;68.39;95302.53;6129941;23;20252;-69
2023/07/11 00:49:56;;;;;;;8.85;8.13;;;;;;;19.41;68.17;95304.13;6130118;23;20250;-69
2023/07/11 00:52:48;;;;;;;8.55;7.85;;;;;;;19.33;68.20;95294.19;6139466;23;20595;-69
2023/07/11 00:55:33;;;;;;;8.20;7.55;;;;;;;19.22;68.42;95292.22;6129707;23;20179;-69
2023/07/11 00:58:22;;;;;;;9.25;8.43;;;;;;;19.20;68.20;95299.41;6129883;23;20187;-69
2023/07/11 01:01:09;;;;;;;8.43;7.75;;;;;;;19.18;68.81;95307.41;6129932;23;20280;-69
2023/07/11 01:03:56;;;;;;;10.43;8.10;;;;;;;19.15;68.57;95295.03;6139654;23;20162;-69
2023/07/11 01:06:42;;;;;;;9.23;8.32;;;;;;;19.13;68.66;95305.00;6129594;23;20571;-70
2023/07/11 01:09:32;;;;;;;8.07;7.43;;;;;;;19.09;69.00;95295.84;6139603;23;20178;-69
2023/07/11 01:12:19;;;;;;;8.20;7.50;;;;;;;19.05;69.60;95301.44;6129801;23;20171;-69
2023/07/11 01:15:07;;;;;;;9.25;7.85;;;;;;;19.06;69.47;95305.81;6129755;23;20567;-69
2023/07/11 01:17:55;;;;;;;8.75;7.97;;;;;;;19.04;69.37;95308.22;6129741;23;20251;-69
2023/07/11 01:20:42;;;;;;;8.85;8.00;;;;;;;19.01;69.44;95297.84;6139503;23;20172;-69
2023/07/11 01:23:29;;;;;;;8.93;8.07;;;;;;;18.99;69.74;95306.66;6129314;23;20215;-69
2023/07/11 01:26:16;;;;;;;9.00;8.30;;;;;;;18.99;69.70;95289.88;6129358;23;20179;-69
2023/07/11 01:29:02;;;;;;;8.15;7.45;;;;;;;19.00;69.51;95302.66;6129521;23;20179;-69
2023/07/11 01:31:48;;;;;;;8.55;7.75;;;;;;;18.97;70.27;95300.66;6129670;23;20167;-69
2023/07/11 01:34:35;;;;;;;8.00;7.30;;;;;;;18.94;69.88;95307.03;6129162;23;20226;-69
2023/07/11 01:37:24;;;;;;;8.50;7.53;;;;;;;18.92;70.34;95295.47;6129240;23;20219;-69
2023/07/11 01:40:17;;;;;;;8.95;8.15;;;;;;;18.91;69.99;95295.84;6139411;23;20167;-69
2023/07/11 01:43:04;;;;;;;8.55;7.72;;;;;;;18.89;69.81;95293.47;6139509;23;20246;-69
2023/07/11 01:45:51;;;;;;;8.77;7.88;;;;;;;18.84;70.17;95288.28;6139047;23;20195;-69
2023/07/11 01:48:38;;;;;;;8.45;7.75;;;;;;;18.72;69.91;95294.28;6129150;23;20182;-70
2023/07/11 01:51:24;;;;;;;9.50;7.63;;;;;;;18.64;69.32;95287.88;6129096;23;20255;-70
2023/07/11 01:54:10;;;;;;;8.52;7.65;;;;;;;18.64;69.66;95295.47;6129082;23;20167;-70
2023/07/11 01:56:58;;;;;;;7.82;7.13;;;;;;;18.66;69.63;95301.44;6129390;23;20573;-69
2023/07/11 01:59:44;;;;;;;7.95;7.15;;;;;;;18.60;69.67;95292.69;6129394;23;20221;-69
2023/07/11 02:02:30;;;;;;;7.53;6.93;;;;;;;18.56;70.20;95286.28;6129223;23;20300;-69
2023/07/11 02:05:19;;;;;;;7.60;6.90;;;;;;;18.56;70.23;95283.50;6128965;23;20167;-69
2023/07/11 02:08:06;;;;;;;8.43;7.50;;;;;;;18.56;70.07;95285.50;6128996;23;20254;-69
2023/07/11 02:10:52;;;;;;;7.57;6.88;;;;;;;18.55;70.67;95279.09;6129231;23;20247;-69
2023/07/11 02:13:40;;;;;;;8.10;7.40;;;;;;;18.53;70.94;95287.88;6129251;23;20241;-70
2023/07/11 02:16:26;;;;;;;7.90;7.18;;;;;;;18.51;70.83;95295.06;6129310;23;20200;-70
2023/07/11 02:19:15;;;;;;;11.38;7.22;;;;;;;18.47;70.61;95291.47;6129210;23;20175;-69
2023/07/11 02:22:02;;;;;;;7.65;6.97;;;;;;;18.44;70.70;95300.63;6129097;23;20174;-69
2023/07/11 02:24:48;;;;;;;7.85;7.05;;;;;;;18.42;70.89;95297.47;6138981;23;20171;-69
2023/07/11 02:27:34;;;;;;;8.27;7.57;;;;;;;18.44;71.57;95293.06;6128747;23;20175;-69
2023/07/11 02:30:21;;;;;;;7.63;6.80;;;;;;;18.47;71.23;95294.25;6129444;23;20538;-69
2023/07/11 02:33:08;;;;;;;8.15;7.35;;;;;;;18.41;71.15;95285.50;6129102;23;20174;-69
2023/07/11 02:35:57;;;;;;;8.20;7.20;;;;;;;18.39;71.34;95292.66;6129090;23;20259;-69
2023/07/11 02:38:44;;;;;;;7.55;6.85;;;;;;;18.39;71.32;95292.66;6138926;23;20166;-69
2023/07/11 02:41:30;;;;;;;8.20;7.50;;;;;;;18.35;71.12;95294.66;6128680;23;20170;-70
2023/07/11 02:44:19;;;;;;;8.43;7.55;;;;;;;18.31;71.07;95294.66;6128592;23;20218;-69
2023/07/11 02:47:09;;;;;;;8.73;7.80;;;;;;;18.33;71.51;95291.47;6128944;23;20203;-69
2023/07/11 02:49:57;;;;;;;8.20;7.40;;;;;;;18.33;71.63;95283.88;6138892;23;20171;-70
2023/07/11 02:52:43;;;;;;;9.55;7.60;;;;;;;18.32;71.76;95273.91;6129033;23;20231;-70
2023/07/11 02:55:29;;;;;;;10.02;7.43;;;;;;;18.32;71.30;95284.28;6128991;23;20168;-69
2023/07/11 02:58:15;;;;;;;8.77;7.90;;;;;;;18.29;71.92;95281.06;6129030;23;20567;-69
2023/07/11 03:01:04;;;;;;;8.88;7.75;;;;;;;18.16;71.54;95285.47;6128597;23;20468;-70
2023/07/11 03:03:55;;;;;;;8.38;7.57;;;;;;;18.06;71.45;95283.47;6128853;23;20255;-70
2023/07/11 03:06:42;;;;;;;10.27;8.10;;;;;;;17.97;71.39;95286.63;6138758;23;20250;-70
2023/07/11 03:09:28;;;;;;;8.23;7.20;;;;;;;17.91;71.43;95293.00;6128588;23;20642;-70
2023/07/11 03:12:15;;;;;;;8.73;7.88;;;;;;;17.89;71.58;95298.97;6138435;23;20234;-70
2023/07/11 03:15:01;;;;;;;9.30;7.57;;;;;;;17.93;72.00;95304.53;6128882;23;20579;-70
2023/07/11 03:17:47;;;;;;;8.00;7.35;;;;;;;17.95;71.73;95294.59;6128916;23;20564;-70
2023/07/11 03:20:38;;;;;;;8.77;7.97;;;;;;;17.98;71.66;95295.81;6129054;23;20245;-70
2023/07/11 03:23:25;;;;;;;9.02;8.25;;;;;;;18.02;71.85;95300.19;6138605;23;20199;-70
2023/07/11 03:26:13;;;;;;;9.38;7.72;;;;;;;18.07;71.83;95301.78;6128792;23;20258;-70
2023/07/11 03:29:00;;;;;;;9.23;8.43;;;;;;;18.09;71.88;95298.63;6138599;23;20564;-70
2023/07/11 03:31:48;;;;;;;8.07;7.28;;;;;;;18.10;72.11;95309.38;6128804;23;20258;-70
2023/07/11 03:34:35;;;;;;;8.07;7.47;;;;;;;18.11;72.57;95305.38;6128465;23;20195;-70
2023/07/11 03:37:23;;;;;;;8.88;7.85;;;;;;;18.11;72.61;95310.97;6128787;23;20223;-70
2023/07/11 03:40:10;;;;;;;9.40;8.50;;;;;;;18.12;72.50;95314.56;6128783;23;20180;-70
2023/07/11 03:42:56;;;;;;;11.43;8.25;;;;;;;18.11;72.44;95308.16;6128896;23;20211;-70
2023/07/11 03:45:48;;;;;;;9.48;8.45;;;;;;;18.17;72.17;95303.81;6128748;23;20175;-70
2023/07/11 03:48:37;;;;;;;8.65;7.82;;;;;;;18.23;71.75;95298.66;6138514;23;20175;-69
2023/07/11 03:51:23;;;;;;;8.63;7.70;;;;;;;18.20;70.86;95294.66;6128428;23;20187;-69
2023/07/11 03:54:13;;;;;;;9.68;7.50;;;;;;;18.24;70.68;95300.22;6128993;23;20198;-70
2023/07/11 03:57:02;;;;;;;12.55;8.45;;;;;;;18.22;71.36;95300.63;6128714;23;20231;-69
2023/07/11 03:59:47;;;;;;;8.98;7.97;;;;;;;18.14;71.59;95299.00;6130315;23;20599;-70
2023/07/11 04:02:36;;;;;;;10.95;8.88;;;;;;;18.05;71.77;95307.00;6130171;23;20190;-70
2023/07/11 04:05:25;;;;;;;9.60;8.35;;;;;;;18.01;71.12;95298.59;6130045;23;20251;-70
2023/07/11 04:08:14;;;;;;;10.90;7.82;;;;;;;18.03;71.56;95295.41;6130439;23;20235;-70
2023/07/11 04:11:04;;;;;;;9.05;8.18;;;;;;;18.08;71.39;95297.78;6129964;23;20341;-70
2023/07/11 04:13:50;;;;;;;9.32;7.78;;;;;;;18.15;71.65;95299.81;6129987;23;20273;-70
2023/07/11 04:16:36;;;;;;;9.02;8.32;;;;;;;18.18;72.38;95313.78;6130316;23;20174;-70
2023/07/11 04:19:28;;;;;;;9.27;8.20;;;;;;;18.20;71.86;95321.75;6140119;23;20170;-70
2023/07/11 04:22:16;;;;;;;13.35;9.43;;;;;;;18.23;71.08;95332.16;6140152;23;20179;-70
2023/07/11 04:25:03;;;;;;;10.43;9.32;;;;;;;18.28;71.63;95326.16;6130224;23;20308;-70
2023/07/11 04:27:55;;;;;;;10.30;9.40;;;;;;;18.34;72.05;95332.97;6130225;23;20178;-70
2023/07/11 04:30:43;;;;;;;10.40;9.50;;;;;;;18.37;72.34;95329.34;6129818;23;20260;-70
2023/07/11 04:33:32;;;;;;;10.45;9.48;;;;;;;18.37;71.49;95318.19;6129822;23;20170;-70
2023/07/11 04:36:18;;;;;;;9.30;8.50;;;;;;;18.40;72.09;95336.13;6130056;23;20179;-70
2023/07/11 04:39:04;;;;;;;9.13;8.07;;;;;;;18.40;70.53;95325.75;6139670;23;20258;-70
2023/07/11 04:41:51;;;;;;;8.18;7.28;;;;;;;18.41;70.27;95341.34;6129862;23;20266;-70
2023/07/11 04:44:42;;;;;;;8.65;7.85;;;;;;;18.41;70.08;95338.56;6139885;23;20274;-70
2023/07/11 04:47:30;;;;;;;8.20;7.40;;;;;;;18.41;69.43;95329.34;6129980;23;20191;-70
2023/07/11 04:50:19;;;;;;;8.45;7.68;;;;;;;18.44;69.55;95343.31;6130104;23;20179;-70
2023/07/11 04:53:06;;;;;;;7.65;7.05;;;;;;;18.49;70.13;95337.34;6129976;23;20255;-70
2023/07/11 04:55:56;;;;;;;8.38;7.70;;;;;;;18.53;70.66;95331.78;6139526;23;20583;-70
2023/07/11 04:58:45;;;;;;;8.65;7.90;;;;;;;18.58;70.83;95333.38;6139405;23;20238;-69
2023/07/11 05:01:35;;;;;;;7.95;7.25;;;;;;;18.62;71.02;95332.16;6129853;23;20175;-70
2023/07/11 05:04:24;;;;;;;9.52;7.55;;;;;;;18.64;71.17;95335.38;6129669;23;20323;-69
2023/07/11 05:07:09;;;;;;;8.85;7.97;;;;;;;18.66;71.06;95323.78;6129595;23;20195;-69
2023/07/11 05:09:56;;;;;;;9.25;8.32;;;;;;;18.68;70.51;95325.00;6129485;23;20227;-69
2023/07/11 05:12:42;;;;;;;9.75;8.75;;;;;;;18.72;69.97;95344.56;6129788;23;20174;-69
2023/07/11 05:15:28;;;;;;;8.98;8.07;;;;;;;18.73;69.16;95338.56;6129742;23;20178;-69
2023/07/11 05:18:15;;;;;;;9.93;8.50;;;;;;;18.76;69.11;95332.19;6129756;23;20455;-69
2023/07/11 05:21:02;;;;;;;9.35;8.35;;;;;;;18.83;69.42;95331.41;6129507;23;20258;-69
2023/07/11 05:23:51;;;;;;;9.75;8.85;;;;;;;18.87;69.56;95340.56;6129648;23;20277;-69
2023/07/11 05:26:39;;;;;;;9.30;8.35;;;;;;;18.92;70.03;95340.19;6129641;23;20174;-69
2023/07/11 05:29:25;;;;;;;9.50;8.63;;;;;;;18.93;70.84;95346.56;6129280;23;20237;-69
2023/07/11 05:32:12;;;;;;;11.13;9.60;;;;;;;18.94;70.05;95346.16;6129309;23;20575;-69
2023/07/11 05:35:05;;;;;;;9.75;8.95;;;;;;;18.98;69.69;95343.38;6129563;23;20225;-69
2023/07/11 05:37:54;;;;;;;10.30;9.27;;;;;;;19.01;69.70;95342.56;6129638;23;20179;-69
2023/07/11 05:40:41;;;;;;;10.40;9.32;;;;;;;19.06;70.29;95346.94;6129614;23;20182;-69
2023/07/11 05:43:28;;;;;;;10.63;9.73;;;;;;;19.08;70.18;95350.16;6129446;23;20199;-69
2023/07/11 05:46:15;;;;;;;12.75;9.57;;;;;;;19.12;70.93;95348.94;6129104;23;20174;-69
2023/07/11 05:49:01;;;;;;;10.95;9.95;;;;;;;19.14;70.58;95345.75;6129102;23;20170;-69
2023/07/11 05:51:51;;;;;;;10.32;9.32;;;;;;;19.18;70.10;95352.13;6129101;23;20579;-69
2023/07/11 05:54:39;;;;;;;12.75;10.60;;;;;;;19.27;70.35;95346.13;6139274;23;20183;-69
2023/07/11 05:57:25;;;;;;;12.70;11.02;;;;;;;19.34;70.11;95337.72;6129436;23;20231;-69
2023/07/11 06:00:16;;;;;;;11.32;10.10;;;;;;;19.40;69.95;95330.53;6129425;23;20178;-69
2023/07/11 06:03:03;;;;;;;10.63;9.55;;;;;;;19.45;70.34;95330.09;6129231;23;20461;-69
2023/07/11 06:05:50;;;;;;;10.27;9.32;;;;;;;19.52;71.31;95332.88;6128981;23;20291;-69
2023/07/11 06:08:39;;;;;;;11.25;9.32;;;;;;;19.57;71.00;95329.69;6129367;23;20179;-69
2023/07/11 06:11:26;;;;;;;10.50;9.50;;;;;;;19.62;71.64;95337.66;6139077;23;20230;-69
2023/07/11 06:14:12;;;;;;;11.30;10.27;;;;;;;19.65;71.60;95328.47;6138718;23;20583;-69
2023/07/11 06:16:58;;;;;;;11.35;9.27;;;;;;;19.68;71.33;95338.84;6128866;23;20179;-70
2023/07/11 06:19:44;;;;;;;9.45;8.50;;;;;;;19.72;70.77;95333.25;6138646;23;20174;-69
2023/07/11 06:22:33;;;;;;;10.43;9.40;;;;;;;19.75;70.80;95329.63;6128821;23;20635;-69
2023/07/11 06:25:24;;;;;;;11.15;10.05;;;;;;;19.82;71.00;95337.19;6129077;23;20243;-70
2023/07/11 06:28:11;;;;;;;10.57;9.43;;;;;;;19.86;71.00;95338.78;6129141;23;20255;-69
2023/07/11 06:30:58;;;;;;;10.38;9.43;;;;;;;19.92;71.42;95344.75;6129713;23;20206;-69
2023/07/11 06:33:50;;;;;;;12.45;10.63;;;;;;;20.00;71.24;95326.69;6129168;23;20171;-69
2023/07/11 06:36:36;;;;;;;11.60;10.48;;;;;;;20.06;70.86;95322.28;6129276;23;20259;-69
2023/07/11 06:39:25;;;;;;;12.75;11.27;;;;;;;20.13;69.59;95310.25;6129131;23;20628;-69
2023/07/11 06:42:12;;;;;;;11.25;10.27;;;;;;;20.19;69.49;95322.63;6129021;23;20182;-69
2023/07/11 06:44:58;;;;;;;12.00;10.90;;;;;;;20.26;70.11;95327.34;6128981;23;20611;-69
2023/07/11 06:47:44;;;;;;;13.70;10.82;;;;;;;20.34;70.26;95328.94;6128753;23;20175;-69
2023/07/11 06:50:31;;;;;;;11.35;10.27;;;;;;;20.38;69.79;95316.47;6128975;23;20570;-69
2023/07/11 06:53:16;;;;;;;13.18;10.63;;;;;;;20.46;70.10;95325.63;6129035;23;20187;-69
2023/07/11 06:56:04;;;;;;;12.63;11.13;;;;;;;20.56;70.51;95321.19;6128674;23;20179;-69
2023/07/11 06:58:52;;;;;;;12.77;11.48;;;;;;;20.64;70.17;95325.53;6129174;23;20194;-69
2023/07/11 07:01:41;;;;;;;11.90;10.65;;;;;;;20.68;68.84;95317.91;6128986;23;20179;-69
2023/07/11 07:04:27;;;;;;;10.98;10.07;;;;;;;20.73;69.31;95325.06;6128889;23;20199;-69
2023/07/11 07:07:14;;;;;;;10.40;9.50;;;;;;;20.74;69.74;95318.25;6128655;23;20175;-69
2023/07/11 07:10:03;;;;;;;11.90;10.55;;;;;;;20.79;68.74;95320.63;6129142;23;20203;-69
2023/07/11 07:12:52;;;;;;;11.48;10.38;;;;;;;20.84;68.98;95318.19;6128870;23;20170;-69
2023/07/11 07:15:39;;;;;;;11.77;10.55;;;;;;;20.88;69.39;95312.53;6129145;23;20216;-69
2023/07/11 07:18:29;;;;;;;12.93;10.85;;;;;;;20.91;69.32;95314.50;6133294;23;20219;-69
2023/07/11 07:21:14;;;;;;;10.70;9.80;;;;;;;20.93;68.89;95314.88;6128817;23;20251;-70
2023/07/11 07:24:01;;;;;;;10.02;9.05;;;;;;;20.97;68.74;95321.25;6128503;23;20199;-70
2023/07/11 07:26:47;;;;;;;11.15;9.85;;;;;;;21.03;68.56;95311.19;6138373;23;20228;-69
2023/07/11 07:29:32;;;;;;;10.68;9.55;;;;;;;21.09;68.35;95315.13;6128617;23;20250;-70
2023/07/11 07:32:19;;;;;;;12.32;9.93;;;;;;;21.20;68.73;95308.63;6138449;23;20179;-69
2023/07/11 07:35:06;;;;;;;11.55;10.40;;;;;;;21.27;67.81;95305.75;6130782;23;20631;-69
2023/07/11 07:37:51;;;;;;;11.15;10.10;;;;;;;21.31;67.91;95304.47;6130786;23;20175;-69
2023/07/11 07:40:37;;;;;;;11.07;10.05;;;;;;;21.36;68.01;95297.66;6130718;23;20307;-69
2023/07/11 07:43:22;;;;;;;10.55;9.65;;;;;;;21.45;66.94;95297.16;6130371;23;20178;-69
2023/07/11 07:46:08;;;;;;;11.32;10.30;;;;;;;21.56;67.25;95290.19;6130691;23;20239;-70
2023/07/11 07:48:55;;;;;;;10.63;9.60;;;;;;;21.70;68.09;95291.25;6130288;23;20175;-69
2023/07/11 07:51:44;;;;;;;11.73;10.18;;;;;;;21.77;66.06;95294.78;6130283;23;20194;-70
2023/07/11 07:54:30;;;;;;;10.15;9.18;;;;;;;21.87;65.56;95302.25;6140493;23;20254;-69
2023/07/11 07:57:16;;;;;;;8.65;7.80;;;;;;;21.99;60.85;95302.91;6130461;23;20170;-69
2023/07/11 08:00:02;;;;;;;7.55;6.95;;;;;;;22.09;57.32;95299.19;6130540;23;20175;-69
2023/07/11 08:02:49;;;;;;;9.10;8.20;;;;;;;22.18;57.13;95302.28;6130535;23;20178;-70
2023/07/11 08:05:37;;;;;;;8.05;7.32;;;;;;;22.27;58.15;95307.38;6129353;23;20311;-70
2023/07/11 08:08:23;;;;;;;7.53;6.93;;;;;;;22.34;58.04;95308.06;6130424;23;20179;-70
2023/07/11 08:11:11;;;;;;;7.80;7.18;;;;;;;22.42;56.78;95303.13;6130084;23;20175;-70
2023/07/11 08:13:57;;;;;;;7.95;7.15;;;;;;;22.51;55.10;95299.78;6130183;23;20176;-69
2023/07/11 08:16:43;;;;;;;7.53;6.85;;;;;;;22.55;54.93;95297.75;6130307;23;20170;-69
2023/07/11 08:19:29;;;;;;;8.27;7.57;;;;;;;22.66;55.00;95301.19;6134812;23;20190;-69
2023/07/11 08:22:16;;;;;;;8.85;8.05;;;;;;;22.74;54.61;95299.84;6130262;23;20171;-69
2023/07/11 08:25:02;;;;;;;8.07;7.28;;;;;;;22.82;53.79;95294.88;6130274;23;20198;-69
2023/07/11 08:27:48;;;;;;;7.55;6.95;;;;;;;22.89;53.62;95293.97;6129951;23;20175;-69
2023/07/11 08:30:36;;;;;;;8.05;6.75;;;;;;;22.98;54.22;95297.84;6130231;23;20218;-69
2023/07/11 08:33:22;;;;;;;7.25;6.75;;;;;;;23.11;53.61;95294.44;6129334;23;20228;-69
2023/07/11 08:36:07;;;;;;;7.35;6.75;;;;;;;23.12;54.68;95293.97;6139683;23;20175;-69
2023/07/11 08:38:54;;;;;;;10.63;7.97;;;;;;;23.27;52.10;95292.50;6129900;23;20175;-69
2023/07/11 08:41:44;;;;;;;7.80;7.20;;;;;;;23.32;52.85;95288.41;6130045;23;20190;-70
2023/07/11 08:44:35;;;;;;;7.70;7.10;;;;;;;23.45;53.71;95289.34;6129896;23;20194;-70
2023/07/11 08:47:25;;;;;;;8.13;7.43;;;;;;;23.55;54.08;95284.75;6130104;23;20187;-70
2023/07/11 08:50:13;;;;;;;7.05;6.45;;;;;;;23.62;53.48;95292.25;6129902;23;20175;-70
2023/07/11 08:53:05;;;;;;;8.18;7.32;;;;;;;23.75;50.87;95294.03;6130212;23;20521;-69
2023/07/11 08:55:55;;;;;;;7.43;6.80;;;;;;;23.83;50.84;95291.06;6129712;23;20260;-70
2023/07/11 08:58:41;;;;;;;7.13;6.43;;;;;;;23.87;50.64;95288.97;6130150;23;20203;-70
2023/07/11 09:01:37;;;;;;;6.97;6.13;;;;;;;23.95;49.63;95294.00;6129980;23;20469;-70
2023/07/11 09:04:24;;;;;;;7.40;6.72;;;;;;;24.02;50.17;95282.59;6129523;23;20199;-69
2023/07/11 09:07:18;;;;;;;6.70;6.10;;;;;;;24.13;49.98;95275.94;6129897;23;20182;-69
2023/07/11 09:10:18;;;;;;;8.45;7.50;;;;;;;24.20;52.71;95270.91;6129543;23;20167;-69
2023/07/11 09:13:31;;;;;;;7.63;6.93;;;;;;;24.22;50.89;95276.09;6129767;23;20298;-69
2023/07/11 09:16:29;;;;;;;7.68;6.97;;;;;;;24.32;55.36;95274.28;6129479;23;20171;-69
2023/07/11 09:22:36;;;;;;;7.63;6.97;;;;;;;24.58;50.40;95278.94;6139540;23;20179;-69
2023/07/11 09:25:25;;;;;;;6.97;6.47;;;;;;;24.60;51.22;95273.66;6129253;23;20198;-69
2023/07/11 09:28:19;;;;;;;7.57;6.75;;;;;;;24.71;50.27;95271.38;6129390;23;20226;-69
2023/07/11 09:31:08;;;;;;;8.45;7.65;;;;;;;24.88;52.74;95275.00;6129084;23;20219;-70
2023/07/11 09:33:57;;;;;;;7.07;6.55;;;;;;;25.05;49.86;95267.28;6129286;23;20176;-70
2023/07/11 09:36:44;;;;;;;7.70;7.00;;;;;;;25.11;51.48;95265.56;6129615;23;20171;-70
2023/07/11 09:39:34;;;;;;;7.63;6.88;;;;;;;25.25;49.31;95274.88;6129580;23;20230;-70
2023/07/11 09:42:23;;;;;;;7.70;7.07;;;;;;;25.26;50.21;95265.97;6139295;23;20186;-70
2023/07/11 09:45:13;;;;;;;8.00;7.20;;;;;;;25.41;51.11;95260.72;6129500;23;20195;-69
2023/07/11 09:48:05;;;;;;;7.93;7.03;;;;;;;25.48;52.42;95259.72;6129530;23;20604;-69
2023/07/11 09:51:08;;;;;;;9.13;7.22;;;;;;;25.62;50.83;95262.94;6139378;23;20247;-69
2023/07/11 09:53:55;;;;;;;7.63;7.05;;;;;;;25.68;50.20;95247.06;6129354;23;20174;-69
2023/07/11 09:56:44;;;;;;;7.63;6.95;;;;;;;25.85;49.33;95258.28;6138941;23;20183;-69
2023/07/11 09:59:30;;;;;;;7.70;6.93;;;;;;;25.91;47.37;95250.88;6129390;23;20226;-69
2023/07/11 10:02:19;;;;;;;8.02;7.15;;;;;;;25.95;49.47;95250.75;6129514;23;20195;-69
2023/07/11 10:05:05;;;;;;;7.15;6.55;;;;;;;26.07;50.35;95242.31;6129163;23;20285;-69
2023/07/11 10:08:00;;;;;;;7.68;6.88;;;;;;;26.23;50.30;95240.63;6129352;23;20227;-70
2023/07/11 10:10:48;;;;;;;7.70;6.95;;;;;;;26.36;49.16;95238.56;6129320;23;20315;-69
2023/07/11 10:13:35;;;;;;;7.65;6.95;;;;;;;26.39;47.03;95238.47;6129222;23;20215;-70
2023/07/11 10:16:21;;;;;;;7.55;6.85;;;;;;;26.41;48.18;95230.34;6139067;23;20276;-70
2023/07/11 10:19:15;;;;;;;8.25;7.45;;;;;;;26.60;48.51;95233.41;6129251;23;20190;-69
2023/07/11 10:22:02;;;;;;;7.78;7.07;;;;;;;26.67;47.13;95238.84;6138997;23;20171;-69
2023/07/11 10:24:48;;;;;;;7.60;6.90;;;;;;;26.73;47.73;95239.84;6132092;23;20206;-69
2023/07/11 10:27:37;;;;;;;7.70;7.05;;;;;;;26.83;46.53;95246.38;6138593;23;20235;-69
2023/07/11 10:30:28;;;;;;;7.40;6.88;;;;;;;26.81;47.57;95254.56;6138576;23;20286;-69
2023/07/11 10:33:37;;;;;;;7.80;7.20;;;;;;;26.84;47.47;95237.47;6129136;23;20183;-69
2023/07/11 10:37:02;;;;;;;8.13;7.40;;;;;;;26.91;48.20;95242.09;6068919;23;20289;-69
2023/07/11 10:40:24;;;;;;;7.90;7.15;;;;;;;27.01;49.23;95240.91;6078870;23;20232;-70
2023/07/11 10:43:46;;;;;;;7.50;6.90;;;;;;;27.09;51.24;95233.78;6048947;23;20180;-70
2023/07/11 10:47:08;;;;;;;7.90;7.10;;;;;;;27.15;49.41;95231.16;6078687;23;20280;-70
2023/07/11 10:50:31;;;;;;;6.80;6.20;;;;;;;27.26;46.26;95220.25;6069133;23;20181;-70
2023/07/11 10:53:53;;;;;;;7.50;6.55;;;;;;;27.34;44.86;95226.47;6075118;23;20176;-69
2023/07/11 10:57:17;;;;;;;6.68;6.07;;;;;;;27.39;44.83;95217.38;6138854;23;20465;-70
2023/07/11 11:00:40;;;;;;;6.53;5.95;;;;;;;27.48;44.95;95217.44;6128762;23;20250;-70
2023/07/11 11:04:02;;;;;;;6.43;5.82;;;;;;;27.58;44.49;95212.66;6128914;23;20231;-69
2023/07/11 11:07:25;;;;;;;6.70;6.13;;;;;;;27.78;47.59;95215.97;6129136;23;20175;-70
2023/07/11 11:10:48;;;;;;;6.53;5.95;;;;;;;27.88;44.08;95208.31;6130998;23;20174;-70
2023/07/11 11:14:11;;;;;;;6.93;5.97;;;;;;;27.84;45.15;95199.94;6140768;23;20179;-70
2023/07/11 11:17:34;;;;;;;6.63;6.03;;;;;;;27.86;45.36;95199.50;6130837;23;20183;-69
2023/07/11 11:20:56;;;;;;;6.65;6.00;;;;;;;27.95;43.53;95204.41;6130904;23;20246;-70
2023/07/11 11:24:19;;;;;;;6.55;6.05;;;;;;;27.94;43.77;95188.66;6130516;23;20223;-70
2023/07/11 11:27:43;;;;;;;6.88;6.28;;;;;;;27.97;44.69;95193.41;6130797;23;20170;-70
2023/07/11 11:31:06;;;;;;;6.57;5.97;;;;;;;27.97;42.24;95188.53;6139996;23;20663;-70
2023/07/11 11:34:28;;;;;;;6.35;5.85;;;;;;;28.15;42.71;95192.72;6130410;23;20235;-70
2023/07/11 11:37:49;;;;;;;6.22;5.72;;;;;;;28.29;41.13;95184.44;6130745;23;20203;-70
2023/07/11 11:41:12;;;;;;;6.40;5.80;;;;;;;28.38;42.45;95188.59;6070551;23;20276;-70
2023/07/11 11:44:35;;;;;;;6.68;6.00;;;;;;;28.33;42.29;95187.13;6070513;23;20180;-70
2023/07/11 11:47:58;;;;;;;5.97;5.47;;;;;;;28.14;41.05;95182.63;6070810;23;20272;-70
2023/07/11 11:51:22;;;;;;;6.05;5.45;;;;;;;28.22;42.28;95184.72;6080289;23;20490;-70
2023/07/11 11:54:45;;;;;;;6.97;5.40;;;;;;;28.38;43.51;95182.91;6070673;23;20176;-70
2023/07/11 11:58:09;;;;;;;6.68;6.18;;;;;;;28.44;43.94;95169.72;6086593;23;20517;-70
2023/07/11 12:01:31;;;;;;;6.70;6.20;;;;;;;28.45;42.98;95172.06;6130530;23;20178;-70
2023/07/11 12:04:54;;;;;;;6.47;5.88;;;;;;;28.53;41.30;95172.56;6139968;23;20171;-70
2023/07/11 12:08:17;;;;;;;6.15;5.63;;;;;;;28.63;43.30;95165.66;6130478;23;20175;-70
2023/07/11 12:11:40;;;;;;;6.70;6.10;;;;;;;28.68;39.96;95170.69;6139979;23;20583;-70
2023/07/11 12:15:03;;;;;;;7.13;6.05;;;;;;;28.75;41.57;95161.09;6130446;23;20227;-70
2023/07/11 12:18:27;;;;;;;6.75;6.13;;;;;;;28.83;42.24;95155.91;6139735;23;20315;-70
2023/07/11 12:21:50;;;;;;;6.82;6.13;;;;;;;28.82;40.13;95157.97;6129068;23;20239;-70
2023/07/11 12:25:12;;;;;;;7.18;6.32;;;;;;;28.88;42.58;95146.78;6130014;23;20175;-70
2023/07/11 12:28:35;;;;;;;7.43;5.90;;;;;;;28.89;40.97;95142.69;6140043;23;20167;-70
2023/07/11 12:31:58;;;;;;;6.25;5.68;;;;;;;28.83;42.09;95139.66;6140188;23;20304;-69
2023/07/11 12:35:20;;;;;;;6.18;5.57;;;;;;;28.88;39.83;95141.91;6130184;23;20205;-69
2023/07/11 12:38:43;;;;;;;6.10;5.60;;;;;;;28.89;40.48;95137.78;6130155;23;20175;-69
2023/07/11 12:41:35;;;;;;;6.15;5.65;;;;;;;28.87;41.44;95128.16;6130088;23;20179;-69
2023/07/11 12:44:21;;;;;;;6.65;6.05;;;;;;;28.87;40.96;95131.81;6129799;23;20223;-69
2023/07/11 12:47:11;;;;;;;6.65;6.05;;;;;;;28.89;41.84;95134.16;6130030;23;20282;-69
2023/07/11 12:49:57;;;;;;;6.53;5.93;;;;;;;28.95;40.82;95130.22;6130013;23;20195;-70
2023/07/11 12:52:44;;;;;;;6.35;5.75;;;;;;;28.96;41.28;95128.97;6139852;23;20175;-69
2023/07/11 12:55:30;;;;;;;5.68;5.18;;;;;;;28.95;40.54;95121.72;6129647;23;20175;-69
2023/07/11 12:58:23;;;;;;;6.38;5.80;;;;;;;28.99;41.33;95124.44;6129692;23;20242;-69
2023/07/11 13:01:14;;;;;;;6.53;5.82;;;;;;;28.98;40.53;95120.81;6129645;23;20175;-69
2023/07/11 13:04:00;;;;;;;11.18;6.25;;;;;;;29.03;42.66;95122.22;6139850;23;20167;-69
2023/07/11 13:06:48;;;;;;;7.13;5.78;;;;;;;29.13;40.16;95118.13;6139298;23;20198;-69
2023/07/11 13:09:42;;;;;;;6.63;5.90;;;;;;;29.21;40.72;95118.59;6129546;23;20174;-69
2023/07/11 13:12:32;;;;;;;6.78;6.07;;;;;;;29.30;40.87;95118.56;6129899;23;20246;-69
2023/07/11 13:15:21;;;;;;;6.53;5.65;;;;;;;29.34;38.89;95116.38;6129830;23;20243;-69
2023/07/11 13:18:24;;;;;;;6.57;5.93;;;;;;;29.39;41.21;95112.88;6139255;23;20223;-69
2023/07/11 13:21:09;;;;;;;8.55;6.20;;;;;;;29.42;40.02;95106.25;6129896;23;20195;-69
2023/07/11 13:23:55;;;;;;;6.47;5.97;;;;;;;29.47;39.21;95107.66;6129757;23;20254;-69
2023/07/11 13:26:41;;;;;;;8.50;6.15;;;;;;;29.50;39.95;95116.03;6129269;23;20253;-69
2023/07/11 13:29:36;;;;;;;6.90;6.05;;;;;;;29.53;38.39;95108.59;6129414;23;20227;-69
2023/07/11 13:32:24;;;;;;;6.97;6.20;;;;;;;29.54;41.01;95104.50;6129509;23;20179;-69
2023/07/11 13:35:18;;;;;;;7.28;5.78;;;;;;;29.59;39.81;95108.78;6135229;23;20195;-69